sensor_id;sensor_type;location;lat;lon;timestamp;P1;durP1;ratioP1;P2;durP2;ratioP2
40757;SDS011;26462;47.384;19.218;2023-04-06T00:01:07;20.92;;;8.18;;
40757;SDS011;26462;47.384;19.218;2023-04-06T00:03:35;16.17;;;7.78;;
40757;SDS011;26462;47.384;19.218;2023-04-06T00:06:02;14.35;;;6.30;;
40757;SDS011;26462;47.384;19.218;2023-04-06T00:08:30;9.45;;;4.43;;
40757;SDS011;26462;47.384;19.218;2023-04-06T00:10:57;10.27;;;5.03;;
40757;SDS011;26462;47.384;19.218;2023-04-06T00:13:24;14.43;;;5.80;;
40757;SDS011;26462;47.384;19.218;2023-04-06T00:15:51;10.43;;;5.15;;
40757;SDS011;26462;47.384;19.218;2023-04-06T00:18:19;12.00;;;5.00;;
40757;SDS011;26462;47.384;19.218;2023-04-06T00:20:46;12.90;;;4.97;;
40757;SDS011;26462;47.384;19.218;2023-04-06T00:23:13;13.35;;;6.05;;
40757;SDS011;26462;47.384;19.218;2023-04-06T00:25:40;11.15;;;4.80;;
40757;SDS011;26462;47.384;19.218;2023-04-06T00:28:07;12.63;;;5.93;;
40757;SDS011;26462;47.384;19.218;2023-04-06T00:30:34;17.02;;;6.68;;
40757;SDS011;26462;47.384;19.218;2023-04-06T00:33:02;14.07;;;6.05;;
40757;SDS011;26462;47.384;19.218;2023-04-06T00:35:29;22.38;;;7.13;;
40757;SDS011;26462;47.384;19.218;2023-04-06T00:37:57;15.15;;;6.68;;
40757;SDS011;26462;47.384;19.218;2023-04-06T00:40:24;17.02;;;8.10;;
40757;SDS011;26462;47.384;19.218;2023-04-06T00:42:51;18.63;;;6.25;;
40757;SDS011;26462;47.384;19.218;2023-04-06T00:45:18;18.92;;;8.15;;
40757;SDS011;26462;47.384;19.218;2023-04-06T00:47:45;14.93;;;7.32;;
40757;SDS011;26462;47.384;19.218;2023-04-06T00:50:13;19.55;;;7.85;;
40757;SDS011;26462;47.384;19.218;2023-04-06T00:52:40;18.35;;;7.25;;
40757;SDS011;26462;47.384;19.218;2023-04-06T00:55:09;14.18;;;6.22;;
40757;SDS011;26462;47.384;19.218;2023-04-06T00:57:40;16.65;;;7.97;;
40757;SDS011;26462;47.384;19.218;2023-04-06T01:00:08;14.85;;;6.40;;
40757;SDS011;26462;47.384;19.218;2023-04-06T01:02:37;18.38;;;7.75;;
40757;SDS011;26462;47.384;19.218;2023-04-06T01:05:04;17.05;;;7.75;;
40757;SDS011;26462;47.384;19.218;2023-04-06T01:07:43;27.10;;;11.65;;
40757;SDS011;26462;47.384;19.218;2023-04-06T01:10:24;30.13;;;12.05;;
40757;SDS011;26462;47.384;19.218;2023-04-06T01:13:02;27.02;;;12.43;;
40757;SDS011;26462;47.384;19.218;2023-04-06T01:16:01;31.17;;;13.13;;
40757;SDS011;26462;47.384;19.218;2023-04-06T01:18:49;27.98;;;11.32;;
40757;SDS011;26462;47.384;19.218;2023-04-06T01:21:25;27.98;;;12.52;;
40757;SDS011;26462;47.384;19.218;2023-04-06T01:24:06;25.33;;;11.15;;
40757;SDS011;26462;47.384;19.218;2023-04-06T01:26:54;29.63;;;11.80;;
40757;SDS011;26462;47.384;19.218;2023-04-06T01:29:25;33.75;;;14.18;;
40757;SDS011;26462;47.384;19.218;2023-04-06T01:31:53;28.80;;;13.27;;
40757;SDS011;26462;47.384;19.218;2023-04-06T01:34:20;32.65;;;13.38;;
40757;SDS011;26462;47.384;19.218;2023-04-06T01:36:47;28.38;;;11.45;;
40757;SDS011;26462;47.384;19.218;2023-04-06T01:39:25;24.98;;;9.85;;
40757;SDS011;26462;47.384;19.218;2023-04-06T01:41:52;22.63;;;10.52;;
40757;SDS011;26462;47.384;19.218;2023-04-06T01:44:20;16.53;;;7.17;;
40757;SDS011;26462;47.384;19.218;2023-04-06T01:46:56;13.18;;;6.25;;
40757;SDS011;26462;47.384;19.218;2023-04-06T01:49:23;14.30;;;6.30;;
40757;SDS011;26462;47.384;19.218;2023-04-06T01:51:53;15.45;;;6.40;;
40757;SDS011;26462;47.384;19.218;2023-04-06T01:54:21;16.77;;;6.10;;
40757;SDS011;26462;47.384;19.218;2023-04-06T01:57:01;11.55;;;5.20;;
40757;SDS011;26462;47.384;19.218;2023-04-06T01:59:32;12.30;;;5.13;;
40757;SDS011;26462;47.384;19.218;2023-04-06T02:02:05;12.23;;;5.70;;
40757;SDS011;26462;47.384;19.218;2023-04-06T02:04:34;14.45;;;5.93;;
40757;SDS011;26462;47.384;19.218;2023-04-06T02:07:10;12.27;;;5.03;;
40757;SDS011;26462;47.384;19.218;2023-04-06T02:09:38;12.80;;;5.70;;
40757;SDS011;26462;47.384;19.218;2023-04-06T02:12:10;11.67;;;4.23;;
40757;SDS011;26462;47.384;19.218;2023-04-06T02:14:37;10.95;;;4.70;;
40757;SDS011;26462;47.384;19.218;2023-04-06T02:17:04;11.88;;;5.35;;
40757;SDS011;26462;47.384;19.218;2023-04-06T02:19:31;14.07;;;5.80;;
40757;SDS011;26462;47.384;19.218;2023-04-06T02:21:58;12.43;;;5.32;;
40757;SDS011;26462;47.384;19.218;2023-04-06T02:24:25;12.10;;;5.28;;
40757;SDS011;26462;47.384;19.218;2023-04-06T02:26:52;15.00;;;5.68;;
40757;SDS011;26462;47.384;19.218;2023-04-06T02:29:19;11.82;;;5.45;;
40757;SDS011;26462;47.384;19.218;2023-04-06T02:31:47;8.70;;;4.45;;
40757;SDS011;26462;47.384;19.218;2023-04-06T02:34:14;12.80;;;5.70;;
40757;SDS011;26462;47.384;19.218;2023-04-06T02:36:48;11.63;;;5.53;;
40757;SDS011;26462;47.384;19.218;2023-04-06T02:39:15;10.43;;;5.10;;
40757;SDS011;26462;47.384;19.218;2023-04-06T02:41:42;14.18;;;6.00;;
40757;SDS011;26462;47.384;19.218;2023-04-06T02:44:10;12.70;;;6.03;;
40757;SDS011;26462;47.384;19.218;2023-04-06T02:46:41;10.93;;;5.55;;
40757;SDS011;26462;47.384;19.218;2023-04-06T02:49:08;12.93;;;6.25;;
40757;SDS011;26462;47.384;19.218;2023-04-06T02:51:36;14.10;;;5.85;;
40757;SDS011;26462;47.384;19.218;2023-04-06T02:54:20;12.68;;;5.78;;
40757;SDS011;26462;47.384;19.218;2023-04-06T02:56:47;11.43;;;5.10;;
40757;SDS011;26462;47.384;19.218;2023-04-06T02:59:14;13.80;;;5.07;;
40757;SDS011;26462;47.384;19.218;2023-04-06T03:01:48;13.98;;;6.05;;
40757;SDS011;26462;47.384;19.218;2023-04-06T03:04:16;12.65;;;6.15;;
40757;SDS011;26462;47.384;19.218;2023-04-06T03:06:43;14.88;;;6.32;;
40757;SDS011;26462;47.384;19.218;2023-04-06T03:09:20;11.40;;;5.65;;
40757;SDS011;26462;47.384;19.218;2023-04-06T03:11:48;14.70;;;6.25;;
40757;SDS011;26462;47.384;19.218;2023-04-06T03:14:15;13.65;;;5.97;;
40757;SDS011;26462;47.384;19.218;2023-04-06T03:16:44;15.00;;;6.15;;
40757;SDS011;26462;47.384;19.218;2023-04-06T03:19:15;13.50;;;5.75;;
40757;SDS011;26462;47.384;19.218;2023-04-06T03:21:42;14.40;;;5.90;;
40757;SDS011;26462;47.384;19.218;2023-04-06T03:24:11;14.35;;;6.25;;
40757;SDS011;26462;47.384;19.218;2023-04-06T03:26:41;12.45;;;6.13;;
40757;SDS011;26462;47.384;19.218;2023-04-06T03:29:08;15.13;;;6.55;;
40757;SDS011;26462;47.384;19.218;2023-04-06T03:31:36;12.55;;;6.15;;
40757;SDS011;26462;47.384;19.218;2023-04-06T03:34:18;13.90;;;6.47;;
40757;SDS011;26462;47.384;19.218;2023-04-06T03:36:45;17.58;;;5.90;;
40757;SDS011;26462;47.384;19.218;2023-04-06T03:39:22;13.82;;;6.15;;
40757;SDS011;26462;47.384;19.218;2023-04-06T03:41:50;12.82;;;5.85;;
40757;SDS011;26462;47.384;19.218;2023-04-06T03:44:31;15.88;;;6.18;;
40757;SDS011;26462;47.384;19.218;2023-04-06T03:46:58;12.38;;;5.40;;
40757;SDS011;26462;47.384;19.218;2023-04-06T03:49:26;18.60;;;7.22;;
40757;SDS011;26462;47.384;19.218;2023-04-06T03:51:55;18.30;;;6.32;;
40757;SDS011;26462;47.384;19.218;2023-04-06T03:54:23;15.40;;;7.80;;
40757;SDS011;26462;47.384;19.218;2023-04-06T03:56:50;16.15;;;5.80;;
40757;SDS011;26462;47.384;19.218;2023-04-06T03:59:17;14.38;;;6.32;;
40757;SDS011;26462;47.384;19.218;2023-04-06T04:01:44;14.50;;;6.53;;
40757;SDS011;26462;47.384;19.218;2023-04-06T04:04:11;13.43;;;5.97;;
40757;SDS011;26462;47.384;19.218;2023-04-06T04:06:38;17.70;;;6.63;;
40757;SDS011;26462;47.384;19.218;2023-04-06T04:09:06;15.23;;;5.82;;
40757;SDS011;26462;47.384;19.218;2023-04-06T04:11:34;15.68;;;6.70;;
40757;SDS011;26462;47.384;19.218;2023-04-06T04:14:01;16.83;;;7.72;;
40757;SDS011;26462;47.384;19.218;2023-04-06T04:16:28;17.42;;;6.85;;
40757;SDS011;26462;47.384;19.218;2023-04-06T04:18:56;21.45;;;7.30;;
40757;SDS011;26462;47.384;19.218;2023-04-06T04:21:25;20.95;;;6.80;;
40757;SDS011;26462;47.384;19.218;2023-04-06T04:23:53;16.42;;;7.20;;
40757;SDS011;26462;47.384;19.218;2023-04-06T04:26:20;24.02;;;7.75;;
40757;SDS011;26462;47.384;19.218;2023-04-06T04:28:47;19.52;;;7.85;;
40757;SDS011;26462;47.384;19.218;2023-04-06T04:31:14;18.50;;;7.40;;
40757;SDS011;26462;47.384;19.218;2023-04-06T04:33:46;17.05;;;7.35;;
40757;SDS011;26462;47.384;19.218;2023-04-06T04:36:20;14.23;;;6.72;;
40757;SDS011;26462;47.384;19.218;2023-04-06T04:38:47;18.27;;;6.75;;
40757;SDS011;26462;47.384;19.218;2023-04-06T04:41:14;18.92;;;7.15;;
40757;SDS011;26462;47.384;19.218;2023-04-06T04:43:43;17.85;;;6.13;;
40757;SDS011;26462;47.384;19.218;2023-04-06T04:46:12;14.32;;;5.35;;
40757;SDS011;26462;47.384;19.218;2023-04-06T04:48:41;14.10;;;5.43;;
40757;SDS011;26462;47.384;19.218;2023-04-06T04:51:09;16.13;;;6.65;;
40757;SDS011;26462;47.384;19.218;2023-04-06T04:54:05;13.57;;;5.25;;
40757;SDS011;26462;47.384;19.218;2023-04-06T04:56:32;19.10;;;6.60;;
40757;SDS011;26462;47.384;19.218;2023-04-06T04:59:08;13.07;;;5.65;;
40757;SDS011;26462;47.384;19.218;2023-04-06T05:01:38;15.60;;;5.95;;
40757;SDS011;26462;47.384;19.218;2023-04-06T05:04:21;17.70;;;6.63;;
40757;SDS011;26462;47.384;19.218;2023-04-06T05:07:03;14.13;;;6.25;;
40757;SDS011;26462;47.384;19.218;2023-04-06T05:09:32;15.35;;;6.55;;
40757;SDS011;26462;47.384;19.218;2023-04-06T05:11:59;18.42;;;7.80;;
40757;SDS011;26462;47.384;19.218;2023-04-06T05:14:29;17.40;;;7.05;;
40757;SDS011;26462;47.384;19.218;2023-04-06T05:16:58;22.73;;;9.40;;
40757;SDS011;26462;47.384;19.218;2023-04-06T05:19:25;29.77;;;10.38;;
40757;SDS011;26462;47.384;19.218;2023-04-06T05:21:53;46.60;;;16.08;;
40757;SDS011;26462;47.384;19.218;2023-04-06T05:24:20;77.65;;;29.05;;
40757;SDS011;26462;47.384;19.218;2023-04-06T05:26:48;84.10;;;30.85;;
40757;SDS011;26462;47.384;19.218;2023-04-06T05:29:21;93.32;;;30.80;;
40757;SDS011;26462;47.384;19.218;2023-04-06T05:31:48;117.43;;;41.35;;
40757;SDS011;26462;47.384;19.218;2023-04-06T05:34:17;118.57;;;43.15;;
40757;SDS011;26462;47.384;19.218;2023-04-06T05:36:44;53.20;;;22.17;;
40757;SDS011;26462;47.384;19.218;2023-04-06T05:39:18;59.60;;;23.08;;
40757;SDS011;26462;47.384;19.218;2023-04-06T05:41:50;119.28;;;41.72;;
40757;SDS011;26462;47.384;19.218;2023-04-06T05:44:28;159.52;;;61.22;;
40757;SDS011;26462;47.384;19.218;2023-04-06T05:47:08;39.72;;;19.00;;
40757;SDS011;26462;47.384;19.218;2023-04-06T05:49:37;23.73;;;9.82;;
40757;SDS011;26462;47.384;19.218;2023-04-06T05:52:09;28.02;;;13.45;;
40757;SDS011;26462;47.384;19.218;2023-04-06T05:54:37;29.52;;;13.77;;
40757;SDS011;26462;47.384;19.218;2023-04-06T05:57:04;25.90;;;13.18;;
40757;SDS011;26462;47.384;19.218;2023-04-06T05:59:31;19.77;;;7.88;;
40757;SDS011;26462;47.384;19.218;2023-04-06T06:01:59;22.90;;;10.00;;
40757;SDS011;26462;47.384;19.218;2023-04-06T06:04:30;16.83;;;8.50;;
40757;SDS011;26462;47.384;19.218;2023-04-06T06:06:58;20.63;;;9.30;;
40757;SDS011;26462;47.384;19.218;2023-04-06T06:09:37;17.48;;;7.97;;
40757;SDS011;26462;47.384;19.218;2023-04-06T06:12:16;14.57;;;7.78;;
40757;SDS011;26462;47.384;19.218;2023-04-06T06:14:43;18.30;;;9.52;;
40757;SDS011;26462;47.384;19.218;2023-04-06T06:17:10;18.90;;;8.90;;
40757;SDS011;26462;47.384;19.218;2023-04-06T06:19:37;15.13;;;7.57;;
40757;SDS011;26462;47.384;19.218;2023-04-06T06:22:06;18.13;;;7.60;;
40757;SDS011;26462;47.384;19.218;2023-04-06T06:24:38;25.05;;;11.18;;
40757;SDS011;26462;47.384;19.218;2023-04-06T06:27:05;20.30;;;8.77;;
40757;SDS011;26462;47.384;19.218;2023-04-06T06:29:35;22.30;;;8.50;;
40757;SDS011;26462;47.384;19.218;2023-04-06T06:32:03;19.17;;;8.27;;
40757;SDS011;26462;47.384;19.218;2023-04-06T06:34:30;15.70;;;8.30;;
40757;SDS011;26462;47.384;19.218;2023-04-06T06:37:01;18.30;;;8.88;;
40757;SDS011;26462;47.384;19.218;2023-04-06T06:39:28;15.82;;;8.13;;
40757;SDS011;26462;47.384;19.218;2023-04-06T06:41:55;14.95;;;8.10;;
40757;SDS011;26462;47.384;19.218;2023-04-06T06:44:42;15.38;;;7.18;;
40757;SDS011;26462;47.384;19.218;2023-04-06T06:47:09;16.15;;;7.85;;
40757;SDS011;26462;47.384;19.218;2023-04-06T06:49:36;17.00;;;7.60;;
40757;SDS011;26462;47.384;19.218;2023-04-06T06:52:03;17.77;;;7.70;;
40757;SDS011;26462;47.384;19.218;2023-04-06T06:54:31;13.52;;;8.13;;
40757;SDS011;26462;47.384;19.218;2023-04-06T06:56:58;14.65;;;8.73;;
40757;SDS011;26462;47.384;19.218;2023-04-06T06:59:26;14.52;;;8.40;;
40757;SDS011;26462;47.384;19.218;2023-04-06T07:01:54;21.02;;;8.70;;
40757;SDS011;26462;47.384;19.218;2023-04-06T07:04:21;22.42;;;11.13;;
40757;SDS011;26462;47.384;19.218;2023-04-06T07:06:49;16.73;;;7.93;;
40757;SDS011;26462;47.384;19.218;2023-04-06T07:09:17;17.75;;;7.75;;
40757;SDS011;26462;47.384;19.218;2023-04-06T07:11:44;15.38;;;7.32;;
40757;SDS011;26462;47.384;19.218;2023-04-06T07:14:11;17.60;;;8.75;;
40757;SDS011;26462;47.384;19.218;2023-04-06T07:16:38;17.73;;;8.52;;
40757;SDS011;26462;47.384;19.218;2023-04-06T07:19:05;15.85;;;8.48;;
40757;SDS011;26462;47.384;19.218;2023-04-06T07:21:33;15.15;;;7.43;;
40757;SDS011;26462;47.384;19.218;2023-04-06T07:24:00;13.85;;;7.22;;
40757;SDS011;26462;47.384;19.218;2023-04-06T07:26:28;15.23;;;7.88;;
40757;SDS011;26462;47.384;19.218;2023-04-06T07:28:56;15.50;;;6.97;;
40757;SDS011;26462;47.384;19.218;2023-04-06T07:31:24;15.02;;;7.45;;
40757;SDS011;26462;47.384;19.218;2023-04-06T07:33:51;12.40;;;6.95;;
40757;SDS011;26462;47.384;19.218;2023-04-06T07:36:19;13.38;;;7.50;;
40757;SDS011;26462;47.384;19.218;2023-04-06T07:38:47;13.52;;;6.82;;
40757;SDS011;26462;47.384;19.218;2023-04-06T07:41:16;11.02;;;5.75;;
40757;SDS011;26462;47.384;19.218;2023-04-06T07:43:44;18.50;;;7.20;;
40757;SDS011;26462;47.384;19.218;2023-04-06T07:46:11;14.63;;;6.45;;
40757;SDS011;26462;47.384;19.218;2023-04-06T07:48:38;12.23;;;6.60;;
40757;SDS011;26462;47.384;19.218;2023-04-06T07:51:07;11.75;;;4.47;;
40757;SDS011;26462;47.384;19.218;2023-04-06T07:53:38;13.43;;;6.07;;
40757;SDS011;26462;47.384;19.218;2023-04-06T07:56:06;10.27;;;5.15;;
40757;SDS011;26462;47.384;19.218;2023-04-06T07:58:33;19.73;;;7.50;;
40757;SDS011;26462;47.384;19.218;2023-04-06T08:01:01;13.15;;;6.03;;
40757;SDS011;26462;47.384;19.218;2023-04-06T08:03:28;12.52;;;5.00;;
40757;SDS011;26462;47.384;19.218;2023-04-06T08:05:56;13.32;;;5.82;;
40757;SDS011;26462;47.384;19.218;2023-04-06T08:08:23;19.23;;;8.13;;
40757;SDS011;26462;47.384;19.218;2023-04-06T08:10:51;15.07;;;7.43;;
40757;SDS011;26462;47.384;19.218;2023-04-06T08:13:18;11.38;;;5.05;;
40757;SDS011;26462;47.384;19.218;2023-04-06T08:15:45;10.73;;;4.75;;
40757;SDS011;26462;47.384;19.218;2023-04-06T08:18:13;9.20;;;4.90;;
40757;SDS011;26462;47.384;19.218;2023-04-06T08:20:40;9.50;;;5.00;;
40757;SDS011;26462;47.384;19.218;2023-04-06T08:23:07;9.07;;;4.68;;
40757;SDS011;26462;47.384;19.218;2023-04-06T08:25:35;7.72;;;4.25;;
40757;SDS011;26462;47.384;19.218;2023-04-06T08:28:03;9.68;;;5.10;;
40757;SDS011;26462;47.384;19.218;2023-04-06T08:30:30;12.00;;;5.60;;
40757;SDS011;26462;47.384;19.218;2023-04-06T08:32:58;8.55;;;4.70;;
40757;SDS011;26462;47.384;19.218;2023-04-06T08:35:25;10.13;;;5.57;;
40757;SDS011;26462;47.384;19.218;2023-04-06T08:37:53;8.77;;;4.47;;
40757;SDS011;26462;47.384;19.218;2023-04-06T08:40:20;11.30;;;5.90;;
40757;SDS011;26462;47.384;19.218;2023-04-06T08:42:54;9.70;;;5.30;;
40757;SDS011;26462;47.384;19.218;2023-04-06T08:45:22;11.68;;;5.22;;
40757;SDS011;26462;47.384;19.218;2023-04-06T08:47:50;10.50;;;5.18;;
40757;SDS011;26462;47.384;19.218;2023-04-06T08:50:18;9.88;;;5.40;;
40757;SDS011;26462;47.384;19.218;2023-04-06T08:52:49;9.13;;;4.75;;
40757;SDS011;26462;47.384;19.218;2023-04-06T08:55:17;9.73;;;4.93;;
40757;SDS011;26462;47.384;19.218;2023-04-06T08:57:44;10.55;;;4.95;;
40757;SDS011;26462;47.384;19.218;2023-04-06T09:00:13;6.93;;;4.10;;
40757;SDS011;26462;47.384;19.218;2023-04-06T09:02:42;12.57;;;5.85;;
40757;SDS011;26462;47.384;19.218;2023-04-06T09:05:12;10.40;;;4.63;;
40757;SDS011;26462;47.384;19.218;2023-04-06T09:07:39;10.23;;;4.93;;
40757;SDS011;26462;47.384;19.218;2023-04-06T09:10:07;10.23;;;5.25;;
40757;SDS011;26462;47.384;19.218;2023-04-06T09:12:34;9.18;;;4.22;;
40757;SDS011;26462;47.384;19.218;2023-04-06T09:15:02;8.27;;;5.18;;
40757;SDS011;26462;47.384;19.218;2023-04-06T09:17:29;6.82;;;3.80;;
40757;SDS011;26462;47.384;19.218;2023-04-06T09:20:00;8.40;;;3.97;;
40757;SDS011;26462;47.384;19.218;2023-04-06T09:22:36;9.50;;;4.47;;
40757;SDS011;26462;47.384;19.218;2023-04-06T09:25:04;9.88;;;5.10;;
40757;SDS011;26462;47.384;19.218;2023-04-06T09:27:37;10.50;;;5.22;;
40757;SDS011;26462;47.384;19.218;2023-04-06T09:32:50;12.35;;;6.20;;
40757;SDS011;26462;47.384;19.218;2023-04-06T09:35:19;12.18;;;5.97;;
40757;SDS011;26462;47.384;19.218;2023-04-06T09:37:48;7.60;;;4.82;;
40757;SDS011;26462;47.384;19.218;2023-04-06T09:40:16;14.85;;;5.57;;
40757;SDS011;26462;47.384;19.218;2023-04-06T09:42:45;11.70;;;6.43;;
40757;SDS011;26462;47.384;19.218;2023-04-06T09:45:14;12.05;;;5.75;;
40757;SDS011;26462;47.384;19.218;2023-04-06T09:47:44;10.95;;;5.40;;
40757;SDS011;26462;47.384;19.218;2023-04-06T09:50:13;10.82;;;5.32;;
40757;SDS011;26462;47.384;19.218;2023-04-06T09:52:46;11.57;;;5.35;;
40757;SDS011;26462;47.384;19.218;2023-04-06T09:55:18;10.25;;;5.18;;
40757;SDS011;26462;47.384;19.218;2023-04-06T09:58:06;9.55;;;4.85;;
40757;SDS011;26462;47.384;19.218;2023-04-06T10:05:42;6.20;;;3.42;;
40757;SDS011;26462;47.384;19.218;2023-04-06T10:08:13;11.63;;;6.47;;
40757;SDS011;26462;47.384;19.218;2023-04-06T10:10:42;8.98;;;4.20;;
40757;SDS011;26462;47.384;19.218;2023-04-06T10:13:10;11.13;;;6.00;;
40757;SDS011;26462;47.384;19.218;2023-04-06T10:15:38;10.05;;;4.32;;
40757;SDS011;26462;47.384;19.218;2023-04-06T10:18:08;9.43;;;4.18;;
40757;SDS011;26462;47.384;19.218;2023-04-06T10:20:40;9.05;;;4.05;;
40757;SDS011;26462;47.384;19.218;2023-04-06T10:26:04;14.70;;;5.53;;
40757;SDS011;26462;47.384;19.218;2023-04-06T10:28:32;9.55;;;4.25;;
40757;SDS011;26462;47.384;19.218;2023-04-06T10:31:05;8.50;;;4.38;;
40757;SDS011;26462;47.384;19.218;2023-04-06T10:33:33;9.40;;;5.05;;
40757;SDS011;26462;47.384;19.218;2023-04-06T10:36:14;9.55;;;4.43;;
40757;SDS011;26462;47.384;19.218;2023-04-06T10:38:52;6.97;;;4.22;;
40757;SDS011;26462;47.384;19.218;2023-04-06T10:41:22;9.80;;;5.63;;
40757;SDS011;26462;47.384;19.218;2023-04-06T10:43:54;9.90;;;4.60;;
40757;SDS011;26462;47.384;19.218;2023-04-06T10:46:30;7.78;;;3.60;;
40757;SDS011;26462;47.384;19.218;2023-04-06T10:49:09;9.77;;;3.92;;
40757;SDS011;26462;47.384;19.218;2023-04-06T10:51:38;11.68;;;5.22;;
40757;SDS011;26462;47.384;19.218;2023-04-06T10:54:06;7.50;;;4.30;;
40757;SDS011;26462;47.384;19.218;2023-04-06T10:56:36;10.15;;;5.45;;
40757;SDS011;26462;47.384;19.218;2023-04-06T10:59:05;10.52;;;5.47;;
40757;SDS011;26462;47.384;19.218;2023-04-06T11:01:32;10.82;;;5.63;;
40757;SDS011;26462;47.384;19.218;2023-04-06T11:04:00;10.30;;;5.30;;
40757;SDS011;26462;47.384;19.218;2023-04-06T11:06:28;10.18;;;4.85;;
40757;SDS011;26462;47.384;19.218;2023-04-06T11:08:58;9.23;;;4.55;;
40757;SDS011;26462;47.384;19.218;2023-04-06T11:11:26;9.15;;;4.95;;
40757;SDS011;26462;47.384;19.218;2023-04-06T11:13:54;10.93;;;5.18;;
40757;SDS011;26462;47.384;19.218;2023-04-06T11:16:32;9.35;;;4.00;;
40757;SDS011;26462;47.384;19.218;2023-04-06T11:19:03;8.13;;;3.80;;
40757;SDS011;26462;47.384;19.218;2023-04-06T11:21:37;14.57;;;6.32;;
40757;SDS011;26462;47.384;19.218;2023-04-06T11:24:07;7.65;;;4.38;;
40757;SDS011;26462;47.384;19.218;2023-04-06T11:26:39;8.25;;;4.60;;
40757;SDS011;26462;47.384;19.218;2023-04-06T11:29:07;7.70;;;3.55;;
40757;SDS011;26462;47.384;19.218;2023-04-06T11:31:41;15.05;;;6.93;;
40757;SDS011;26462;47.384;19.218;2023-04-06T11:34:13;8.60;;;5.40;;
40757;SDS011;26462;47.384;19.218;2023-04-06T11:36:45;8.32;;;4.63;;
40757;SDS011;26462;47.384;19.218;2023-04-06T11:39:13;9.68;;;4.50;;
40757;SDS011;26462;47.384;19.218;2023-04-06T11:41:48;12.52;;;7.10;;
40757;SDS011;26462;47.384;19.218;2023-04-06T11:44:40;12.35;;;6.80;;
40757;SDS011;26462;47.384;19.218;2023-04-06T11:47:12;8.00;;;4.88;;
40757;SDS011;26462;47.384;19.218;2023-04-06T11:49:40;9.93;;;5.88;;
40757;SDS011;26462;47.384;19.218;2023-04-06T11:52:18;11.85;;;6.20;;
40757;SDS011;26462;47.384;19.218;2023-04-06T11:54:47;11.05;;;6.60;;
40757;SDS011;26462;47.384;19.218;2023-04-06T11:57:17;7.30;;;4.47;;
40757;SDS011;26462;47.384;19.218;2023-04-06T11:59:45;10.07;;;5.85;;
40757;SDS011;26462;47.384;19.218;2023-04-06T12:02:12;9.48;;;4.60;;
40757;SDS011;26462;47.384;19.218;2023-04-06T12:04:39;9.98;;;4.43;;
40757;SDS011;26462;47.384;19.218;2023-04-06T12:07:07;9.65;;;4.90;;
40757;SDS011;26462;47.384;19.218;2023-04-06T12:09:34;6.43;;;3.97;;
40757;SDS011;26462;47.384;19.218;2023-04-06T12:12:02;7.88;;;3.88;;
40757;SDS011;26462;47.384;19.218;2023-04-06T12:14:30;7.32;;;4.10;;
40757;SDS011;26462;47.384;19.218;2023-04-06T12:16:57;6.13;;;4.22;;
40757;SDS011;26462;47.384;19.218;2023-04-06T12:19:24;10.85;;;5.25;;
40757;SDS011;26462;47.384;19.218;2023-04-06T12:21:52;6.95;;;4.57;;
40757;SDS011;26462;47.384;19.218;2023-04-06T12:24:21;7.38;;;3.50;;
40757;SDS011;26462;47.384;19.218;2023-04-06T12:26:48;8.23;;;4.03;;
40757;SDS011;26462;47.384;19.218;2023-04-06T12:29:24;8.73;;;3.78;;
40757;SDS011;26462;47.384;19.218;2023-04-06T12:31:52;6.57;;;3.28;;
40757;SDS011;26462;47.384;19.218;2023-04-06T12:34:19;7.38;;;3.95;;
40757;SDS011;26462;47.384;19.218;2023-04-06T12:36:47;7.15;;;3.47;;
40757;SDS011;26462;47.384;19.218;2023-04-06T12:39:14;7.97;;;3.70;;
40757;SDS011;26462;47.384;19.218;2023-04-06T12:41:45;8.07;;;4.22;;
40757;SDS011;26462;47.384;19.218;2023-04-06T12:44:12;7.75;;;4.20;;
40757;SDS011;26462;47.384;19.218;2023-04-06T12:46:40;11.43;;;6.38;;
40757;SDS011;26462;47.384;19.218;2023-04-06T12:49:07;9.32;;;3.85;;
40757;SDS011;26462;47.384;19.218;2023-04-06T12:51:34;32.15;;;12.35;;
40757;SDS011;26462;47.384;19.218;2023-04-06T12:54:01;72.35;;;37.15;;
40757;SDS011;26462;47.384;19.218;2023-04-06T12:56:29;10.88;;;6.80;;
40757;SDS011;26462;47.384;19.218;2023-04-06T12:58:57;20.23;;;11.10;;
40757;SDS011;26462;47.384;19.218;2023-04-06T13:01:24;9.60;;;4.78;;
40757;SDS011;26462;47.384;19.218;2023-04-06T13:03:55;10.52;;;4.28;;
40757;SDS011;26462;47.384;19.218;2023-04-06T13:06:23;8.43;;;4.63;;
40757;SDS011;26462;47.384;19.218;2023-04-06T13:08:54;10.07;;;3.60;;
40757;SDS011;26462;47.384;19.218;2023-04-06T13:11:21;6.88;;;3.40;;
40757;SDS011;26462;47.384;19.218;2023-04-06T13:13:52;9.45;;;3.53;;
40757;SDS011;26462;47.384;19.218;2023-04-06T13:16:19;7.63;;;3.63;;
40757;SDS011;26462;47.384;19.218;2023-04-06T13:18:47;6.78;;;3.28;;
40757;SDS011;26462;47.384;19.218;2023-04-06T13:21:14;6.05;;;3.72;;
40757;SDS011;26462;47.384;19.218;2023-04-06T13:23:42;7.15;;;3.90;;
40757;SDS011;26462;47.384;19.218;2023-04-06T13:26:10;7.53;;;3.70;;
40757;SDS011;26462;47.384;19.218;2023-04-06T13:28:40;8.02;;;4.35;;
40757;SDS011;26462;47.384;19.218;2023-04-06T13:31:08;8.23;;;4.53;;
40757;SDS011;26462;47.384;19.218;2023-04-06T13:33:36;10.20;;;4.10;;
40757;SDS011;26462;47.384;19.218;2023-04-06T13:36:03;10.00;;;4.10;;
40757;SDS011;26462;47.384;19.218;2023-04-06T13:38:32;7.72;;;4.10;;
40757;SDS011;26462;47.384;19.218;2023-04-06T13:41:00;8.18;;;3.85;;
40757;SDS011;26462;47.384;19.218;2023-04-06T13:43:27;9.85;;;4.28;;
40757;SDS011;26462;47.384;19.218;2023-04-06T13:45:54;8.27;;;4.57;;
40757;SDS011;26462;47.384;19.218;2023-04-06T13:48:24;10.02;;;4.95;;
40757;SDS011;26462;47.384;19.218;2023-04-06T13:50:52;16.30;;;9.75;;
40757;SDS011;26462;47.384;19.218;2023-04-06T13:53:20;21.77;;;13.07;;
40757;SDS011;26462;47.384;19.218;2023-04-06T13:55:54;16.73;;;9.05;;
40757;SDS011;26462;47.384;19.218;2023-04-06T13:58:22;21.13;;;10.95;;
40757;SDS011;26462;47.384;19.218;2023-04-06T14:00:49;8.32;;;3.88;;
40757;SDS011;26462;47.384;19.218;2023-04-06T14:03:17;5.60;;;3.55;;
40757;SDS011;26462;47.384;19.218;2023-04-06T14:05:45;8.07;;;3.50;;
40757;SDS011;26462;47.384;19.218;2023-04-06T14:08:12;8.07;;;3.42;;
40757;SDS011;26462;47.384;19.218;2023-04-06T14:10:40;8.80;;;3.50;;
40757;SDS011;26462;47.384;19.218;2023-04-06T14:13:08;8.35;;;3.60;;
40757;SDS011;26462;47.384;19.218;2023-04-06T14:15:36;9.32;;;4.30;;
40757;SDS011;26462;47.384;19.218;2023-04-06T14:18:03;10.63;;;4.70;;
40757;SDS011;26462;47.384;19.218;2023-04-06T14:20:31;11.48;;;4.07;;
40757;SDS011;26462;47.384;19.218;2023-04-06T14:22:59;9.88;;;4.28;;
40757;SDS011;26462;47.384;19.218;2023-04-06T14:25:27;9.68;;;4.75;;
40757;SDS011;26462;47.384;19.218;2023-04-06T14:27:54;9.43;;;5.03;;
40757;SDS011;26462;47.384;19.218;2023-04-06T14:30:22;11.38;;;5.53;;
40757;SDS011;26462;47.384;19.218;2023-04-06T14:32:49;9.07;;;4.40;;
40757;SDS011;26462;47.384;19.218;2023-04-06T14:35:16;11.18;;;5.03;;
40757;SDS011;26462;47.384;19.218;2023-04-06T14:37:43;7.47;;;3.00;;
40757;SDS011;26462;47.384;19.218;2023-04-06T14:40:10;10.23;;;3.72;;
40757;SDS011;26462;47.384;19.218;2023-04-06T14:42:38;9.85;;;4.63;;
40757;SDS011;26462;47.384;19.218;2023-04-06T14:45:05;5.93;;;3.67;;
40757;SDS011;26462;47.384;19.218;2023-04-06T14:47:32;7.70;;;3.83;;